createdAt,value
2018-12-31T00:00:09.912Z,7.60
2018-12-31T00:02:40.101Z,6.10
2018-12-31T00:05:09.726Z,7.40
2018-12-31T00:07:39.139Z,6.43
2018-12-31T00:10:09.356Z,4.97
2018-12-31T00:12:38.743Z,8.00
2018-12-31T00:15:09.248Z,6.40
2018-12-31T00:17:38.619Z,5.10
2018-12-31T00:20:08.259Z,6.05
2018-12-31T00:22:38.054Z,6.97
2018-12-31T00:25:07.687Z,7.58
2018-12-31T00:27:37.067Z,8.40
2018-12-31T00:30:07.653Z,6.43
2018-12-31T00:32:37.025Z,6.53
2018-12-31T00:35:06.409Z,7.10
2018-12-31T00:37:36.058Z,6.93
2018-12-31T00:40:06.079Z,6.70
2018-12-31T00:42:35.445Z,8.87
2018-12-31T00:45:05.788Z,6.07
2018-12-31T00:47:35.156Z,9.17
2018-12-31T00:50:05.186Z,5.80
2018-12-31T00:52:34.587Z,11.90
2018-12-31T00:55:03.966Z,5.50
2018-12-31T00:57:33.372Z,7.37
2018-12-31T01:00:02.847Z,6.07
2018-12-31T01:02:32.226Z,7.90
2018-12-31T01:05:01.606Z,7.43
2018-12-31T01:07:31.598Z,4.50
2018-12-31T01:10:01.049Z,7.63
2018-12-31T01:12:30.417Z,8.18
2018-12-31T01:14:59.824Z,5.07
2018-12-31T01:17:29.200Z,8.50
2018-12-31T01:19:58.570Z,7.43
2018-12-31T01:22:27.981Z,4.47
2018-12-31T01:24:57.355Z,12.70
2018-12-31T01:27:26.742Z,6.40
2018-12-31T01:29:56.141Z,7.07
2018-12-31T01:32:25.515Z,8.37
2018-12-31T01:34:54.889Z,8.33
2018-12-31T01:37:24.289Z,5.05
2018-12-31T01:39:53.662Z,5.03
2018-12-31T01:42:23.047Z,5.77
2018-12-31T01:44:52.448Z,6.00
2018-12-31T01:47:21.826Z,5.57
2018-12-31T01:49:51.205Z,8.47
2018-12-31T01:52:20.909Z,7.17
2018-12-31T01:54:50.280Z,3.40
2018-12-31T01:57:19.662Z,10.83
2018-12-31T01:59:49.069Z,7.20
2018-12-31T02:02:18.449Z,6.90
2018-12-31T02:04:47.867Z,9.10
2018-12-31T02:07:17.263Z,7.20
2018-12-31T02:09:46.957Z,4.37
2018-12-31T02:12:16.347Z,5.43
2018-12-31T02:14:46.196Z,5.43
2018-12-31T02:17:15.572Z,8.10
2018-12-31T02:19:44.954Z,9.53
2018-12-31T02:22:14.460Z,8.93
2018-12-31T02:24:43.838Z,6.80
2018-12-31T02:27:13.215Z,6.00
2018-12-31T02:29:42.631Z,8.20
2018-12-31T02:32:12.010Z,6.60
2018-12-31T02:34:41.414Z,8.07
2018-12-31T02:37:11.336Z,7.10
2018-12-31T02:39:41.020Z,6.77
2018-12-31T02:42:10.394Z,7.00
2018-12-31T02:44:39.791Z,7.33
2018-12-31T02:47:09.170Z,5.97
2018-12-31T02:49:38.543Z,8.67
2018-12-31T02:52:07.940Z,6.70
2018-12-31T02:54:37.321Z,5.90
2018-12-31T02:57:06.797Z,9.73
2018-12-31T02:59:36.653Z,4.60
2018-12-31T03:02:06.028Z,6.70
2018-12-31T03:04:35.403Z,5.50
2018-12-31T03:07:05.126Z,4.37
2018-12-31T03:09:34.754Z,9.50
2018-12-31T03:12:04.772Z,5.17
2018-12-31T03:14:34.180Z,5.53
2018-12-31T03:17:03.572Z,7.83
2018-12-31T03:19:33.298Z,9.37
2018-12-31T03:22:02.992Z,5.83
2018-12-31T03:24:32.366Z,6.07
2018-12-31T03:27:01.744Z,9.97
2018-12-31T03:29:31.136Z,7.27
2018-12-31T03:32:00.518Z,6.97
2018-12-31T03:34:29.898Z,9.00
2018-12-31T03:36:59.287Z,8.50
2018-12-31T03:39:28.667Z,8.53
2018-12-31T03:41:58.040Z,5.67
2018-12-31T03:44:27.776Z,6.00
2018-12-31T03:46:57.448Z,4.93
2018-12-31T03:49:26.818Z,5.63
2018-12-31T03:51:56.230Z,7.10
2018-12-31T03:54:25.617Z,4.93
2018-12-31T03:56:55.258Z,6.50
2018-12-31T03:59:24.648Z,10.40
2018-12-31T04:01:54.045Z,5.57
2018-12-31T04:04:23.414Z,7.13
2018-12-31T04:06:52.819Z,6.73
2018-12-31T04:09:22.203Z,6.67
2018-12-31T04:11:51.577Z,6.73
2018-12-31T04:14:21.222Z,8.90
2018-12-31T04:16:50.594Z,5.37
2018-12-31T04:19:19.967Z,7.67
2018-12-31T04:21:49.711Z,9.83
2018-12-31T04:24:19.081Z,8.50
2018-12-31T04:26:48.459Z,7.30
2018-12-31T04:29:18.156Z,7.73
2018-12-31T04:31:47.532Z,6.37
2018-12-31T04:34:16.905Z,5.90
2018-12-31T04:36:46.313Z,7.10
2018-12-31T04:39:15.687Z,8.60
2018-12-31T04:41:45.068Z,9.03
2018-12-31T04:44:14.447Z,7.10
2018-12-31T04:46:43.830Z,5.10
2018-12-31T04:49:13.203Z,5.50
2018-12-31T04:51:42.607Z,7.60
2018-12-31T04:54:11.984Z,7.83
2018-12-31T04:56:41.352Z,7.83
2018-12-31T04:59:10.782Z,7.40
2018-12-31T05:01:40.120Z,6.57
2018-12-31T05:04:09.499Z,6.30
2018-12-31T05:06:39.157Z,5.40
2018-12-31T05:09:08.533Z,6.00
2018-12-31T05:11:37.907Z,5.60
2018-12-31T05:14:07.583Z,7.83
2018-12-31T05:16:36.991Z,5.77
2018-12-31T05:19:06.368Z,6.83
2018-12-31T05:21:35.751Z,7.00
2018-12-31T05:24:05.129Z,6.53
2018-12-31T05:26:34.502Z,6.80
2018-12-31T05:29:04.191Z,5.57
2018-12-31T05:31:33.567Z,5.87
2018-12-31T05:34:02.942Z,5.73
2018-12-31T05:36:32.552Z,6.23
2018-12-31T05:39:01.924Z,5.67
2018-12-31T05:41:31.299Z,6.17
2018-12-31T05:44:00.701Z,5.83
2018-12-31T05:46:30.065Z,8.20
2018-12-31T05:48:59.437Z,9.57
2018-12-31T05:51:28.838Z,7.43
2018-12-31T05:53:58.218Z,7.80
2018-12-31T05:56:27.591Z,7.10
2018-12-31T05:58:57.010Z,6.90
2018-12-31T06:01:26.385Z,10.70
2018-12-31T06:03:55.757Z,10.97
2018-12-31T06:06:25.139Z,8.33
2018-12-31T06:08:54.519Z,8.57
2018-12-31T06:11:23.901Z,8.17
2018-12-31T06:13:53.289Z,7.33
2018-12-31T06:16:22.661Z,7.83
2018-12-31T06:18:52.480Z,7.10
2018-12-31T06:21:22.213Z,8.10
2018-12-31T06:23:51.596Z,8.57
2018-12-31T06:26:21.280Z,9.73
2018-12-31T06:28:50.682Z,7.30
2018-12-31T06:31:20.062Z,8.40
2018-12-31T06:33:49.453Z,8.83
2018-12-31T06:36:18.854Z,7.27
2018-12-31T06:38:48.218Z,8.13
2018-12-31T06:41:17.601Z,7.83
2018-12-31T06:43:47.340Z,8.63
2018-12-31T06:46:16.732Z,9.97
2018-12-31T06:48:46.421Z,9.17
2018-12-31T06:51:15.810Z,9.17
2018-12-31T06:53:45.193Z,7.67
2018-12-31T06:56:14.574Z,7.67
2018-12-31T06:58:44.002Z,8.23
2018-12-31T07:01:13.421Z,10.17
2018-12-31T07:03:42.789Z,8.20
2018-12-31T07:06:12.550Z,9.48
2018-12-31T07:08:42.303Z,8.03
2018-12-31T07:11:11.682Z,10.07
2018-12-31T07:13:41.081Z,11.63
2018-12-31T07:16:10.468Z,8.87
2018-12-31T07:18:39.851Z,11.33
2018-12-31T07:21:09.515Z,11.97
2018-12-31T07:23:38.913Z,11.03
2018-12-31T07:26:09.958Z,10.47
2018-12-31T07:28:39.566Z,10.50
2018-12-31T07:31:08.951Z,8.20
2018-12-31T07:33:38.334Z,9.77
2018-12-31T07:36:07.742Z,10.57
2018-12-31T07:38:37.133Z,14.67
2018-12-31T07:41:06.515Z,11.93
2018-12-31T07:43:35.923Z,10.33
2018-12-31T07:46:05.334Z,8.27
2018-12-31T07:48:34.724Z,9.30
2018-12-31T07:51:04.566Z,11.77
2018-12-31T07:53:33.960Z,7.43
2018-12-31T07:56:03.413Z,10.53
2018-12-31T07:58:33.110Z,10.83
2018-12-31T08:01:02.495Z,10.20
2018-12-31T08:03:31.865Z,9.87
2018-12-31T08:06:01.258Z,11.57
2018-12-31T08:08:30.637Z,14.60
2018-12-31T08:11:00.019Z,11.40
2018-12-31T08:13:29.442Z,9.00
2018-12-31T08:15:58.827Z,9.67
2018-12-31T08:18:28.206Z,11.93
2018-12-31T08:20:57.605Z,9.67
2018-12-31T08:23:27.446Z,11.50
2018-12-31T08:25:56.859Z,13.23
2018-12-31T08:28:26.661Z,10.27
2018-12-31T08:30:56.068Z,12.27
2018-12-31T08:33:25.452Z,8.30
2018-12-31T08:35:55.300Z,9.43
2018-12-31T08:38:24.703Z,11.33
2018-12-31T08:40:54.223Z,8.53
2018-12-31T08:43:23.571Z,11.27
2018-12-31T08:45:53.004Z,8.40
2018-12-31T08:48:22.430Z,11.03
2018-12-31T08:50:52.098Z,12.63
2018-12-31T08:53:21.469Z,10.03
2018-12-31T08:55:50.862Z,7.83
2018-12-31T08:58:20.320Z,10.23
2018-12-31T09:00:49.947Z,11.03
2018-12-31T09:03:19.329Z,11.27
2018-12-31T09:05:48.733Z,7.75
2018-12-31T09:08:18.116Z,11.20
2018-12-31T09:10:47.497Z,10.17
2018-12-31T09:13:16.888Z,9.70
2018-12-31T09:15:46.332Z,7.70
2018-12-31T09:18:15.955Z,8.13
2018-12-31T09:20:46.223Z,12.47
2018-12-31T09:23:15.605Z,10.43
2018-12-31T09:25:45.906Z,9.43
2018-12-31T09:28:15.321Z,10.10
2018-12-31T09:30:44.711Z,9.83
2018-12-31T09:33:14.103Z,10.47
2018-12-31T09:35:43.524Z,11.97
2018-12-31T09:38:12.909Z,9.83
2018-12-31T09:40:42.283Z,8.77
2018-12-31T09:43:11.948Z,9.50
2018-12-31T09:45:41.338Z,14.33
2018-12-31T09:48:10.753Z,9.30
2018-12-31T09:50:40.144Z,10.47
2018-12-31T09:53:09.530Z,7.77
2018-12-31T09:55:38.941Z,9.43
2018-12-31T09:58:08.332Z,8.17
2018-12-31T10:00:37.713Z,7.97
2018-12-31T10:03:07.097Z,7.43
2018-12-31T10:05:36.874Z,9.57
2018-12-31T10:08:06.253Z,7.70
2018-12-31T10:10:35.640Z,9.27
2018-12-31T10:13:05.105Z,8.97
2018-12-31T10:15:34.481Z,7.03
2018-12-31T10:18:03.867Z,7.67
2018-12-31T10:20:33.256Z,8.50
2018-12-31T10:23:02.661Z,7.23
2018-12-31T10:25:32.116Z,8.90
2018-12-31T10:28:02.492Z,7.77
2018-12-31T10:30:31.791Z,8.63
2018-12-31T10:33:01.169Z,6.73
2018-12-31T10:35:30.562Z,7.08
2018-12-31T10:38:00.177Z,7.73
2018-12-31T10:40:29.560Z,7.97
2018-12-31T10:42:58.974Z,6.60
2018-12-31T10:45:28.363Z,7.50
2018-12-31T10:47:57.745Z,9.57
2018-12-31T10:50:27.385Z,7.07
2018-12-31T10:52:56.837Z,7.93
2018-12-31T10:55:26.213Z,8.17
2018-12-31T10:57:55.602Z,7.43
2018-12-31T11:00:24.999Z,10.17
2018-12-31T11:02:54.377Z,6.00
2018-12-31T11:05:23.767Z,7.93
2018-12-31T11:07:53.160Z,7.57
2018-12-31T11:10:22.543Z,6.30
2018-12-31T11:12:51.959Z,6.50
2018-12-31T11:15:21.363Z,7.53
2018-12-31T11:17:50.735Z,7.67
2018-12-31T11:20:20.153Z,8.87
2018-12-31T11:22:49.540Z,8.37
2018-12-31T11:25:18.915Z,7.20
2018-12-31T11:27:48.318Z,6.83
2018-12-31T11:30:18.385Z,6.23
2018-12-31T11:32:47.758Z,7.07
2018-12-31T11:35:17.462Z,8.15
2018-12-31T11:37:46.886Z,11.40
2018-12-31T11:40:16.224Z,9.23
2018-12-31T11:42:45.666Z,7.23
2018-12-31T11:45:14.992Z,7.67
2018-12-31T11:47:44.371Z,9.07
2018-12-31T11:50:13.782Z,8.43
2018-12-31T11:52:43.255Z,10.93
2018-12-31T11:55:12.638Z,9.77
2018-12-31T11:57:42.581Z,6.87
2018-12-31T12:00:11.958Z,7.47
2018-12-31T12:02:41.343Z,7.07
2018-12-31T12:05:10.739Z,7.93
2018-12-31T12:07:40.170Z,10.03
2018-12-31T12:10:09.650Z,9.57
2018-12-31T12:12:39.046Z,7.93
2018-12-31T12:15:09.060Z,10.13
2018-12-31T12:17:38.432Z,7.73
2018-12-31T12:20:09.143Z,7.78
2018-12-31T12:22:38.518Z,8.43
2018-12-31T12:25:08.223Z,8.65
2018-12-31T12:27:37.616Z,5.80
2018-12-31T12:30:09.251Z,7.45
2018-12-31T12:32:40.078Z,6.83
2018-12-31T12:35:09.446Z,6.53
2018-12-31T12:37:38.828Z,6.57
2018-12-31T12:40:09.339Z,6.90
2018-12-31T12:42:38.810Z,8.53
2018-12-31T12:45:09.515Z,7.50
2018-12-31T12:47:38.866Z,9.73
2018-12-31T12:50:09.091Z,8.28
2018-12-31T12:52:38.476Z,7.87
2018-12-31T12:55:08.099Z,5.70
2018-12-31T12:57:37.513Z,8.27
2018-12-31T13:00:07.520Z,6.30
2018-12-31T13:02:36.893Z,7.30
2018-12-31T13:05:06.548Z,7.00
2018-12-31T13:07:36.306Z,6.73
2018-12-31T13:10:07.036Z,5.43
2018-12-31T13:12:36.813Z,6.57
2018-12-31T13:15:07.054Z,6.43
2018-12-31T13:17:36.463Z,5.73
2018-12-31T13:20:06.312Z,6.97
2018-12-31T13:22:35.683Z,7.40
2018-12-31T13:25:05.461Z,7.77
2018-12-31T13:27:35.109Z,6.57
2018-12-31T13:30:05.523Z,9.47
2018-12-31T13:32:34.918Z,6.50
2018-12-31T13:35:04.609Z,5.23
2018-12-31T13:37:33.982Z,5.23
2018-12-31T13:40:03.358Z,6.50
2018-12-31T13:42:32.755Z,6.00
2018-12-31T13:45:02.135Z,5.87
2018-12-31T13:47:31.532Z,5.67
2018-12-31T13:50:00.944Z,6.70
2018-12-31T13:52:30.408Z,6.07
2018-12-31T13:55:00.166Z,9.03
2018-12-31T13:57:29.568Z,6.83
2018-12-31T13:59:58.941Z,6.40
2018-12-31T14:02:28.323Z,7.43
2018-12-31T14:04:57.806Z,5.90
2018-12-31T14:07:28.359Z,5.00
2018-12-31T14:09:57.730Z,6.03
2018-12-31T14:12:27.333Z,8.83
2018-12-31T14:14:56.717Z,8.20
2018-12-31T14:17:26.101Z,6.50
2018-12-31T14:19:55.515Z,4.93
2018-12-31T14:22:24.897Z,4.97
2018-12-31T14:24:54.350Z,7.17
2018-12-31T14:27:24.016Z,6.63
2018-12-31T14:29:53.388Z,5.37
2018-12-31T14:32:22.771Z,6.07
2018-12-31T14:34:52.346Z,6.27
2018-12-31T14:37:23.001Z,8.33
2018-12-31T14:39:52.377Z,5.47
2018-12-31T14:42:22.147Z,6.13
2018-12-31T14:44:51.526Z,5.93
2018-12-31T14:47:20.913Z,4.27
2018-12-31T14:49:50.298Z,7.07
2018-12-31T14:52:19.671Z,7.53
2018-12-31T14:54:49.338Z,7.73
2018-12-31T14:57:19.050Z,5.43
2018-12-31T14:59:48.428Z,8.50
2018-12-31T15:02:17.817Z,5.90
2018-12-31T15:04:47.211Z,7.50
2018-12-31T15:07:16.599Z,5.70
2018-12-31T15:09:45.972Z,6.07
2018-12-31T15:12:15.368Z,8.40
2018-12-31T15:14:44.740Z,5.97
2018-12-31T15:17:14.434Z,7.37
2018-12-31T15:19:44.119Z,8.43
2018-12-31T15:22:13.498Z,6.80
2018-12-31T15:24:43.152Z,7.73
2018-12-31T15:27:12.555Z,9.40
2018-12-31T15:29:41.929Z,8.37
2018-12-31T15:32:11.317Z,10.07
2018-12-31T15:34:40.714Z,13.63
2018-12-31T15:37:10.087Z,8.60
2018-12-31T15:39:40.520Z,10.27
2018-12-31T15:42:10.454Z,9.33
2018-12-31T15:44:39.834Z,10.13
2018-12-31T15:47:09.342Z,19.50
2018-12-31T15:49:38.714Z,11.83
2018-12-31T15:52:08.110Z,12.37
2018-12-31T15:54:37.765Z,11.70
2018-12-31T15:57:07.187Z,11.73
2018-12-31T15:59:36.567Z,12.80
2018-12-31T16:02:05.956Z,11.87
2018-12-31T16:04:35.657Z,14.37
2018-12-31T16:07:05.417Z,15.37
2018-12-31T16:09:34.805Z,13.40
2018-12-31T16:12:04.210Z,15.20
2018-12-31T16:14:33.586Z,15.43
2018-12-31T16:17:02.978Z,14.67
2018-12-31T16:19:32.679Z,14.77
2018-12-31T16:22:02.070Z,14.70
2018-12-31T16:24:31.442Z,15.93
2018-12-31T16:27:01.139Z,18.27
2018-12-31T16:29:30.546Z,18.47
2018-12-31T16:32:00.319Z,16.80
2018-12-31T16:34:29.713Z,17.20
2018-12-31T16:36:59.125Z,106.33
2018-12-31T16:39:28.485Z,34.97
2018-12-31T16:41:58.784Z,43.37
2018-12-31T16:44:28.187Z,33.83
2018-12-31T16:46:57.563Z,57.33
2018-12-31T16:49:27.008Z,30.83
2018-12-31T16:52:02.632Z,78.63
2018-12-31T16:54:27.581Z,45.90
2018-12-31T16:56:56.975Z,23.63
2018-12-31T16:59:26.364Z,49.10
2018-12-31T17:01:55.747Z,29.30
2018-12-31T17:04:25.142Z,20.80
2018-12-31T17:06:54.535Z,18.77
2018-12-31T17:09:23.918Z,17.10
2018-12-31T17:11:53.379Z,17.27
2018-12-31T17:14:22.764Z,17.53
2018-12-31T17:16:52.157Z,24.50
2018-12-31T17:19:21.560Z,20.47
2018-12-31T17:21:50.946Z,25.40
2018-12-31T17:24:20.325Z,23.20
2018-12-31T17:26:49.729Z,24.80
2018-12-31T17:29:19.188Z,24.73
2018-12-31T17:31:48.584Z,21.73
2018-12-31T17:34:18.000Z,23.87
2018-12-31T17:36:47.390Z,22.27
2018-12-31T17:39:16.802Z,20.83
2018-12-31T17:41:46.175Z,20.50
2018-12-31T17:44:16.992Z,19.40
2018-12-31T17:46:46.375Z,20.10
2018-12-31T17:49:15.767Z,20.90
2018-12-31T17:51:45.153Z,21.63
2018-12-31T17:54:14.810Z,27.10
2018-12-31T17:56:44.774Z,23.95
2018-12-31T17:59:14.178Z,23.97
2018-12-31T18:01:43.566Z,26.97
2018-12-31T18:04:12.973Z,24.63
2018-12-31T18:06:43.471Z,24.27
2018-12-31T18:09:13.348Z,20.93
2018-12-31T18:11:42.754Z,66.97
2018-12-31T18:14:12.138Z,33.53
2018-12-31T18:16:41.525Z,29.03
2018-12-31T18:19:11.039Z,27.00
2018-12-31T18:21:40.657Z,34.80
2018-12-31T18:24:10.028Z,49.93
2018-12-31T18:26:39.424Z,27.80
2018-12-31T18:29:08.808Z,30.00
2018-12-31T18:31:38.208Z,27.03
2018-12-31T18:34:07.786Z,27.00
2018-12-31T18:36:37.176Z,28.47
2018-12-31T18:39:07.701Z,28.53
2018-12-31T18:41:37.871Z,23.50
2018-12-31T18:44:07.250Z,25.33
2018-12-31T18:46:37.339Z,24.47
2018-12-31T18:49:06.997Z,23.47
2018-12-31T18:51:36.385Z,23.53
2018-12-31T18:54:05.781Z,31.63
2018-12-31T18:56:35.187Z,57.47
2018-12-31T18:59:04.573Z,32.13
2018-12-31T19:01:33.969Z,22.90
2018-12-31T19:04:03.402Z,27.40
2018-12-31T19:06:32.783Z,61.27
2018-12-31T19:09:02.173Z,73.97
2018-12-31T19:11:31.574Z,47.87
2018-12-31T19:14:00.973Z,34.37
2018-12-31T19:16:30.707Z,32.80
2018-12-31T19:19:00.558Z,27.83
2018-12-31T19:21:30.268Z,49.07
2018-12-31T19:23:59.651Z,76.97
2018-12-31T19:26:29.087Z,46.17
2018-12-31T19:28:58.471Z,21.83
2018-12-31T19:31:27.853Z,22.73
2018-12-31T19:33:57.276Z,20.27
2018-12-31T19:36:26.670Z,18.67
2018-12-31T19:38:56.051Z,19.40
2018-12-31T19:41:25.462Z,20.30
2018-12-31T19:43:54.844Z,18.57
2018-12-31T19:46:24.235Z,21.73
2018-12-31T19:48:54.355Z,23.60
2018-12-31T19:51:23.762Z,28.03
2018-12-31T19:53:53.140Z,21.43
2018-12-31T19:56:22.547Z,25.17
2018-12-31T19:58:51.935Z,28.40
2018-12-31T20:01:21.331Z,24.47
2018-12-31T20:03:51.008Z,24.73
2018-12-31T20:06:20.395Z,28.60
2018-12-31T20:08:49.792Z,27.67
2018-12-31T20:11:19.699Z,71.53
2018-12-31T20:13:49.085Z,29.30
2018-12-31T20:16:18.465Z,68.07
2018-12-31T20:18:47.867Z,61.87
2018-12-31T20:21:17.268Z,30.70
2018-12-31T20:23:46.653Z,73.50
2018-12-31T20:26:16.384Z,41.07
2018-12-31T20:28:45.833Z,26.07
2018-12-31T20:31:15.219Z,32.73
2018-12-31T20:33:45.147Z,29.10
2018-12-31T20:36:14.557Z,33.30
2018-12-31T20:38:44.218Z,26.77
2018-12-31T20:41:13.622Z,23.67
2018-12-31T20:43:43.003Z,26.53
2018-12-31T20:46:12.475Z,45.33
2018-12-31T20:48:41.874Z,27.20
2018-12-31T20:51:11.950Z,31.97
2018-12-31T20:53:41.335Z,38.27
2018-12-31T20:56:11.214Z,31.23
2018-12-31T20:58:40.590Z,25.23
2018-12-31T21:01:09.993Z,23.63
2018-12-31T21:03:39.394Z,61.70
2018-12-31T21:06:08.785Z,26.37
2018-12-31T21:08:38.160Z,54.67
2018-12-31T21:11:07.566Z,23.67
2018-12-31T21:13:36.947Z,22.77
2018-12-31T21:16:06.330Z,25.73
2018-12-31T21:18:37.319Z,34.70
2018-12-31T21:21:06.892Z,41.33
2018-12-31T21:23:36.286Z,29.80
2018-12-31T21:26:05.735Z,28.23
2018-12-31T21:28:35.111Z,47.93
2018-12-31T21:31:04.494Z,28.83
2018-12-31T21:33:33.879Z,28.83
2018-12-31T21:36:03.562Z,36.67
2018-12-31T21:38:32.946Z,38.63
2018-12-31T21:41:02.613Z,36.37
2018-12-31T21:43:32.273Z,24.57
2018-12-31T21:46:01.666Z,30.67
2018-12-31T21:48:31.048Z,22.20
2018-12-31T21:51:00.516Z,21.53
2018-12-31T21:53:31.053Z,44.80
2018-12-31T21:56:00.492Z,25.33
2018-12-31T21:58:29.845Z,26.30
2018-12-31T22:00:59.245Z,22.30
2018-12-31T22:03:28.975Z,20.53
2018-12-31T22:05:58.400Z,20.07
2018-12-31T22:08:27.772Z,20.07
2018-12-31T22:10:57.171Z,21.87
2018-12-31T22:13:26.561Z,21.37
2018-12-31T22:15:56.252Z,22.87
2018-12-31T22:18:25.963Z,49.83
2018-12-31T22:20:55.353Z,90.77
2018-12-31T22:23:24.729Z,64.67
2018-12-31T22:25:54.521Z,32.30
2018-12-31T22:28:23.909Z,28.53
2018-12-31T22:30:53.306Z,25.93
2018-12-31T22:33:22.691Z,45.97
2018-12-31T22:35:52.092Z,62.37
2018-12-31T22:38:21.461Z,48.87
2018-12-31T22:40:50.864Z,36.87
2018-12-31T22:43:20.240Z,34.97
2018-12-31T22:45:49.629Z,29.40
2018-12-31T22:48:19.457Z,35.97
2018-12-31T22:50:48.837Z,51.27
2018-12-31T22:53:18.217Z,35.13
2018-12-31T22:55:48.695Z,68.20
2018-12-31T22:58:18.174Z,27.83
2018-12-31T23:00:48.769Z,73.43
2018-12-31T23:03:18.173Z,216.03
2018-12-31T23:05:47.590Z,141.97
2018-12-31T23:08:17.331Z,61.27
2018-12-31T23:10:46.769Z,82.50
2018-12-31T23:13:16.152Z,109.80
2018-12-31T23:15:47.427Z,119.47
2018-12-31T23:18:16.906Z,157.47
2018-12-31T23:20:46.385Z,426.27
2018-12-31T23:23:15.766Z,179.20
2018-12-31T23:25:45.190Z,149.67
2018-12-31T23:28:14.572Z,167.50
2018-12-31T23:30:43.979Z,262.30
2018-12-31T23:33:13.566Z,192.83
2018-12-31T23:35:42.976Z,136.07
2018-12-31T23:38:12.358Z,140.90
2018-12-31T23:40:41.801Z,188.17
2018-12-31T23:43:11.167Z,144.63
2018-12-31T23:45:40.868Z,255.50
2018-12-31T23:48:10.257Z,133.67
2018-12-31T23:50:39.657Z,98.47
2018-12-31T23:53:09.036Z,95.37
2018-12-31T23:55:38.954Z,140.73
2018-12-31T23:58:08.558Z,91.33
